Sao Jose Dos Campos, Brazil

8:24 PM BRT on August 31, 2015 (GMT -0300)
Sao Jose Dos Campos | | Change Station
CLOSE
Current Station
Airport
Location: Sao Jose dos Campos,
Elevation: 2119 ft
Nearby Weather Stations

Elev 2119 ft 23.23 °S, 45.86 °W | Updated 24 minutes ago

Clear
Clear
77 °F
Feels Like 77 °F
N
2
Wind Variable Wind from SSW

Today
High -- | Low -- °F
--% Chance of Precip.
Yesterday
High -- | Low -- °F
Precip. -- in
6:15 AM 5:52 PM
Waning Gibbous, 93% visible
Pressure 30.09 in
Visibility -9999.0 miles
Clouds
Dew Point 55 °F
Humidity 47%
Rainfall 0.00 in
Snow Depth Not available.
UV Not available.
Pollen Not available.
Air Quality Not available.
Flu Activity Not available.
METAR SBSJ 312300Z 21002KT CAVOK 25/13 Q1019
Pressure 30.09 in
Visibility -9999.0 miles
Clouds
Dew Point 55 °F
Humidity 47%
Rainfall 0.00 in
Snow Depth Not available.
UV Not available.
Pollen Not available.
Air Quality Not available.
Flu Activity Not available.
METAR SBSJ 312300Z 21002KT CAVOK 25/13 Q1019

10-Day Weather Forecast

×

Almanac

Astronomy

Aug. 31, 2015 Rise Set
Actual Time
Civil Twilight
Nautical Twilight
Astronomical Twilight
Moon
Length of Visible Light
Length of Day
Tomorrow will be .
, % of the Moon is Illuminated

Today's Extremes

Country Highs Country Lows

Community

WunderPhotos

Upload Photos

1,851,392 photos uploaded!

WunderBlogs® & News

Nearby

Air Quality

  Air Quality AQ Index Pollutant
Not available.

Snow Depth

Station Depth Elevation

Earthquake Activity

City Distance Mag. Time & Date
Minimum magnitude displayed is 2.5.

Coastal Water Temperatures

Place Temperature

Stations

Nearby Weather Stations

Station Location Temp. Windchill Dew Point Humidity Wind Precip. Elev Updated Type